createdAt,value
2019-04-03T00:01:41.438Z,31.80
2019-04-03T00:04:10.794Z,31.97
2019-04-03T00:06:40.202Z,30.08
2019-04-03T00:09:09.668Z,28.80
2019-04-03T00:11:40.848Z,28.25
2019-04-03T00:14:12.182Z,26.10
2019-04-03T00:16:41.476Z,24.92
2019-04-03T00:19:10.927Z,25.50
2019-04-03T00:21:40.313Z,27.00
2019-04-03T00:24:09.765Z,26.33
2019-04-03T00:26:39.212Z,28.40
2019-04-03T00:29:08.755Z,26.62
2019-04-03T00:31:38.299Z,25.82
2019-04-03T00:34:07.742Z,25.72
2019-04-03T00:36:37.293Z,24.35
2019-04-03T00:39:07.636Z,23.38
2019-04-03T00:41:37.536Z,20.85
2019-04-03T00:44:07.044Z,20.75
2019-04-03T00:46:36.482Z,18.73
2019-04-03T00:49:06.111Z,18.32
2019-04-03T00:51:35.927Z,20.23
2019-04-03T00:54:05.406Z,20.50
2019-04-03T00:56:34.857Z,19.82
2019-04-03T00:59:04.456Z,19.35
2019-04-03T01:01:34.018Z,20.23
2019-04-03T01:04:03.469Z,18.95
2019-04-03T01:06:32.830Z,18.00
2019-04-03T01:09:02.199Z,19.02
2019-04-03T01:11:33.482Z,18.75
2019-04-03T01:14:03.084Z,20.88
2019-04-03T01:16:33.319Z,20.43
2019-04-03T01:19:05.100Z,19.67
2019-04-03T01:21:36.558Z,21.40
2019-04-03T01:24:07.734Z,20.37
2019-04-03T01:26:36.923Z,22.05
2019-04-03T01:29:06.456Z,21.60
2019-04-03T01:31:35.818Z,20.62
2019-04-03T01:34:05.514Z,21.93
2019-04-03T01:36:34.965Z,22.65
2019-04-03T01:39:06.946Z,23.83
2019-04-03T01:41:36.401Z,25.23
2019-04-03T01:44:05.939Z,23.52
2019-04-03T01:46:35.460Z,26.90
2019-04-03T01:49:04.969Z,25.82
2019-04-03T01:51:34.539Z,26.85
2019-04-03T01:54:04.098Z,28.02
2019-04-03T01:56:33.878Z,27.98
2019-04-03T01:59:06.117Z,30.40
2019-04-03T02:01:36.562Z,27.48
2019-04-03T02:04:06.952Z,27.80
2019-04-03T02:06:36.354Z,28.73
2019-04-03T02:09:08.942Z,26.55
2019-04-03T02:14:07.998Z,26.07
2019-04-03T02:16:37.347Z,28.25
2019-04-03T02:19:06.819Z,25.48
2019-04-03T02:21:36.260Z,30.65
2019-04-03T02:24:05.801Z,26.40
2019-04-03T02:26:35.207Z,27.65
2019-04-03T02:29:06.653Z,29.85
2019-04-03T02:31:36.479Z,29.12
2019-04-03T02:34:06.185Z,29.72
2019-04-03T02:36:36.013Z,29.67
2019-04-03T02:39:06.866Z,30.92
2019-04-03T02:41:37.376Z,29.57
2019-04-03T02:44:07.406Z,31.05
2019-04-03T02:46:38.300Z,32.25
2019-04-03T02:49:10.230Z,32.33
2019-04-03T02:51:41.617Z,31.00
2019-04-03T02:54:28.641Z,33.38
2019-04-03T02:57:00.994Z,31.97
2019-04-03T02:59:30.514Z,32.23
2019-04-03T03:02:00.062Z,30.97
2019-04-03T03:04:29.662Z,33.20
2019-04-03T03:06:59.124Z,35.35
2019-04-03T03:09:30.562Z,33.70
2019-04-03T03:12:00.729Z,33.60
2019-04-03T03:14:30.166Z,31.42
2019-04-03T03:17:00.158Z,31.87
2019-04-03T03:19:33.014Z,32.00
2019-04-03T03:22:02.611Z,32.85
2019-04-03T03:24:34.410Z,26.27
2019-04-03T03:27:04.126Z,26.33
2019-04-03T03:29:33.913Z,25.77
2019-04-03T03:32:12.654Z,24.80
2019-04-03T03:34:50.851Z,25.08
2019-04-03T03:37:06.813Z,24.87
2019-04-03T03:39:37.249Z,22.62
2019-04-03T03:42:07.256Z,24.27
2019-04-03T03:44:37.235Z,24.25
2019-04-03T03:47:07.639Z,21.93
2019-04-03T03:49:37.151Z,22.73
2019-04-03T03:52:07.282Z,22.15
2019-04-03T03:54:37.896Z,21.90
2019-04-03T03:57:07.737Z,21.82
2019-04-03T03:59:39.478Z,21.17
2019-04-03T04:02:09.131Z,21.77
2019-04-03T04:04:38.921Z,21.62
2019-04-03T04:07:08.623Z,21.52
2019-04-03T04:09:38.399Z,21.55
2019-04-03T04:12:08.750Z,21.90
2019-04-03T04:14:38.396Z,21.57
2019-04-03T04:17:12.257Z,21.55
2019-04-03T04:19:40.154Z,22.13
2019-04-03T04:22:09.955Z,22.93
2019-04-03T04:24:39.379Z,23.75
2019-04-03T04:27:08.927Z,25.35
2019-04-03T04:29:41.324Z,23.83
2019-04-03T04:32:09.499Z,26.00
2019-04-03T04:34:38.977Z,26.55
2019-04-03T04:37:08.414Z,26.70
2019-04-03T04:39:37.828Z,26.50
2019-04-03T04:42:07.895Z,25.77
2019-04-03T04:44:38.951Z,26.68
2019-04-03T04:47:08.437Z,27.25
2019-04-03T04:49:38.007Z,27.20
2019-04-03T04:52:07.509Z,27.62
2019-04-03T04:54:36.848Z,27.13
2019-04-03T04:57:06.898Z,28.02
2019-04-03T04:59:37.764Z,29.02
2019-04-03T05:02:08.809Z,28.20
2019-04-03T05:04:38.267Z,28.57
2019-04-03T05:07:09.341Z,27.65
2019-04-03T05:09:38.836Z,27.58
2019-04-03T05:12:10.019Z,27.25
2019-04-03T05:14:42.790Z,28.15
2019-04-03T05:17:13.137Z,27.60
2019-04-03T05:19:42.755Z,29.00
2019-04-03T05:22:12.253Z,29.57
2019-04-03T05:24:41.699Z,27.93
2019-04-03T05:27:11.171Z,29.00
2019-04-03T05:29:40.595Z,29.23
2019-04-03T05:32:10.704Z,28.65
2019-04-03T05:34:40.238Z,28.23
2019-04-03T05:37:11.627Z,28.12
2019-04-03T05:39:41.431Z,28.13
2019-04-03T05:42:11.126Z,27.55
2019-04-03T05:44:40.925Z,28.42
2019-04-03T05:47:10.691Z,29.32
2019-04-03T05:49:40.432Z,29.15
2019-04-03T05:52:09.927Z,27.58
2019-04-03T05:54:40.028Z,27.58
2019-04-03T05:57:09.869Z,27.07
2019-04-03T05:59:39.301Z,27.10
2019-04-03T06:02:16.191Z,27.75
2019-04-03T06:04:45.905Z,29.80
2019-04-03T06:07:18.030Z,28.02
2019-04-03T06:09:46.657Z,29.67
2019-04-03T06:12:18.772Z,30.23
2019-04-03T06:14:50.977Z,30.77
2019-04-03T06:17:22.310Z,27.93
2019-04-03T06:19:52.026Z,29.15
2019-04-03T06:22:23.157Z,27.55
2019-04-03T06:24:55.750Z,28.52
2019-04-03T06:27:23.741Z,25.30
2019-04-03T06:29:55.092Z,27.50
2019-04-03T06:32:24.911Z,25.92
2019-04-03T06:34:54.449Z,25.15
2019-04-03T06:37:24.332Z,22.80
2019-04-03T06:39:53.835Z,21.62
2019-04-03T06:42:23.272Z,20.10
2019-04-03T06:44:53.842Z,20.02
2019-04-03T06:47:23.583Z,19.87
2019-04-03T06:49:53.123Z,19.77
2019-04-03T06:52:22.951Z,17.80
2019-04-03T06:54:54.111Z,17.87
2019-04-03T06:57:25.850Z,17.57
2019-04-03T06:59:55.352Z,18.63
2019-04-03T07:02:32.015Z,17.98
2019-04-03T07:05:02.821Z,16.15
2019-04-03T07:07:35.702Z,16.85
2019-04-03T07:10:09.253Z,16.53
2019-04-03T07:12:39.373Z,16.37
2019-04-03T07:15:09.175Z,16.52
2019-04-03T07:17:38.630Z,15.53
2019-04-03T07:20:14.605Z,16.67
2019-04-03T07:22:59.385Z,16.65
2019-04-03T07:25:29.026Z,14.85
2019-04-03T07:27:58.475Z,15.78
2019-04-03T07:30:27.916Z,16.60
2019-04-03T07:32:58.347Z,14.10
2019-04-03T07:35:28.224Z,14.20
2019-04-03T07:37:58.109Z,14.70
2019-04-03T07:40:27.966Z,14.30
2019-04-03T07:42:57.586Z,14.53
2019-04-03T07:45:26.940Z,15.45
2019-04-03T07:47:56.313Z,14.80
2019-04-03T07:50:25.674Z,15.88
2019-04-03T07:52:55.204Z,15.95
2019-04-03T07:55:27.854Z,16.12
2019-04-03T07:57:55.918Z,17.15
2019-04-03T08:00:25.515Z,16.37
2019-04-03T08:02:54.959Z,15.00
2019-04-03T08:05:24.465Z,16.20
2019-04-03T08:07:54.330Z,16.87
2019-04-03T08:10:23.718Z,16.35
2019-04-03T08:12:53.135Z,15.78
2019-04-03T08:15:23.791Z,16.12
2019-04-03T08:17:53.209Z,17.52
2019-04-03T08:20:24.022Z,16.23
2019-04-03T08:22:54.082Z,17.27
2019-04-03T08:25:23.530Z,15.55
2019-04-03T08:27:55.611Z,15.55
2019-04-03T08:30:24.098Z,16.62
2019-04-03T08:32:53.713Z,16.93
2019-04-03T08:35:24.283Z,15.45
2019-04-03T08:37:54.066Z,14.00
2019-04-03T08:40:23.427Z,13.75
2019-04-03T08:42:53.349Z,12.85
2019-04-03T08:45:22.969Z,12.35
2019-04-03T08:47:52.571Z,11.95
2019-04-03T08:50:23.132Z,12.30
2019-04-03T08:52:52.606Z,12.00
2019-04-03T08:55:23.383Z,11.80
2019-04-03T08:57:53.264Z,12.20
2019-04-03T09:00:23.610Z,12.75
2019-04-03T09:02:52.972Z,12.50
2019-04-03T09:05:22.472Z,12.70
2019-04-03T09:14:43.538Z,9.48
2019-04-03T09:17:13.347Z,8.90
2019-04-03T09:19:42.814Z,8.33
2019-04-03T09:22:12.353Z,8.35
2019-04-03T09:24:41.855Z,8.93
2019-04-03T09:27:11.376Z,8.68
2019-04-03T09:29:40.822Z,9.60
2019-04-03T09:32:11.744Z,9.53
2019-04-03T09:34:41.388Z,8.75
2019-04-03T09:37:10.857Z,8.85
2019-04-03T09:39:40.272Z,9.18
2019-04-03T09:42:10.033Z,8.78
2019-04-03T09:44:39.605Z,9.30
2019-04-03T09:47:09.537Z,8.10
2019-04-03T09:49:42.272Z,8.30
2019-04-03T09:52:10.744Z,8.38
2019-04-03T09:54:40.634Z,7.87
2019-04-03T09:57:10.280Z,8.10
2019-04-03T09:59:39.760Z,7.70
2019-04-03T10:02:09.273Z,7.40
2019-04-03T10:04:38.717Z,7.17
2019-04-03T10:07:08.398Z,7.78
2019-04-03T10:09:39.012Z,6.62
2019-04-03T10:12:09.156Z,6.65
2019-04-03T10:14:38.662Z,7.08
2019-04-03T10:17:08.476Z,5.90
2019-04-03T10:19:38.116Z,6.08
2019-04-03T10:22:07.711Z,5.87
2019-04-03T10:24:37.066Z,6.15
2019-04-03T10:27:07.145Z,5.60
2019-04-03T10:29:36.632Z,6.22
2019-04-03T10:32:06.249Z,5.20
2019-04-03T10:34:36.217Z,5.30
2019-04-03T10:37:06.025Z,5.00
2019-04-03T10:39:35.557Z,4.90
2019-04-03T10:42:05.179Z,5.03
2019-04-03T10:44:34.684Z,5.17
2019-04-03T10:47:04.731Z,5.10
2019-04-03T10:49:34.288Z,4.45
2019-04-03T10:52:04.086Z,4.15
2019-04-03T10:54:33.533Z,4.00
2019-04-03T10:57:03.518Z,4.42
2019-04-03T10:59:34.077Z,4.53
2019-04-03T11:02:03.496Z,4.67
2019-04-03T11:04:33.126Z,5.35
2019-04-03T11:07:02.649Z,5.10
2019-04-03T11:09:32.221Z,5.83
2019-04-03T11:12:01.866Z,5.90
2019-04-03T11:14:31.483Z,3.30
2019-04-03T11:17:01.658Z,2.90
2019-04-03T11:19:31.170Z,2.92
2019-04-03T11:22:01.087Z,3.22
2019-04-03T11:24:32.441Z,3.83
2019-04-03T11:27:02.508Z,4.60
2019-04-03T11:29:32.182Z,5.35
2019-04-03T11:32:01.925Z,5.42
2019-04-03T11:34:31.705Z,5.12
2019-04-03T11:37:01.679Z,5.78
2019-04-03T11:39:31.490Z,5.75
2019-04-03T11:42:00.998Z,6.25
2019-04-03T11:44:30.448Z,7.97
2019-04-03T11:47:00.146Z,6.55
2019-04-03T11:49:30.152Z,5.65
2019-04-03T11:52:01.489Z,4.65
2019-04-03T11:54:30.758Z,5.75
2019-04-03T11:57:00.294Z,4.17
2019-04-03T11:59:29.750Z,3.95
2019-04-03T12:02:00.239Z,3.90
2019-04-03T12:04:29.598Z,4.17
2019-04-03T12:06:59.608Z,3.40
2019-04-03T12:09:29.361Z,4.22
2019-04-03T12:12:00.427Z,4.30
2019-04-03T12:14:29.913Z,3.90
2019-04-03T12:16:59.277Z,4.40
2019-04-03T12:19:30.511Z,3.62
2019-04-03T12:22:00.210Z,3.58
2019-04-03T12:24:29.690Z,4.40
2019-04-03T12:26:59.201Z,4.50
2019-04-03T12:29:28.878Z,4.78
2019-04-03T12:31:58.394Z,4.10
2019-04-03T12:34:28.399Z,4.75
2019-04-03T12:36:58.069Z,4.05
2019-04-03T12:39:28.153Z,4.50
2019-04-03T12:41:58.280Z,4.28
2019-04-03T12:44:27.788Z,4.37
2019-04-03T12:46:57.258Z,4.33
2019-04-03T12:49:26.836Z,4.30
2019-04-03T12:51:56.761Z,4.78
2019-04-03T12:54:27.221Z,4.80
2019-04-03T12:56:56.937Z,5.03
2019-04-03T12:59:26.626Z,5.10
2019-04-03T13:01:56.242Z,5.30
2019-04-03T13:04:26.502Z,5.35
2019-04-03T13:06:56.787Z,4.83
2019-04-03T13:09:26.519Z,4.53
2019-04-03T13:11:56.246Z,5.15
2019-04-03T13:14:27.204Z,5.03
2019-04-03T13:20:54.237Z,116.82
2019-04-03T13:43:14.078Z,129.65
2019-04-03T13:46:25.868Z,128.65
2019-04-03T14:09:38.737Z,4.40
2019-04-03T14:12:08.046Z,4.35
2019-04-03T14:14:38.660Z,4.60
2019-04-03T14:17:08.530Z,4.55
2019-04-03T14:19:44.526Z,4.40
2019-04-03T14:22:09.024Z,4.40
2019-04-03T14:24:44.935Z,3.90
2019-04-03T14:27:20.775Z,3.70
2019-04-03T14:29:41.949Z,4.22
2019-04-03T14:32:13.984Z,4.00
2019-04-03T14:34:42.297Z,4.35
2019-04-03T14:37:12.311Z,3.70
2019-04-03T14:39:41.877Z,2.77
2019-04-03T14:42:11.149Z,3.25
2019-04-03T14:44:41.760Z,3.87
2019-04-03T14:47:11.451Z,4.40
2019-04-03T14:49:40.790Z,4.65
2019-04-03T14:52:10.119Z,4.20
2019-04-03T14:54:39.482Z,4.53
2019-04-03T14:57:17.734Z,4.10
2019-04-03T14:59:39.804Z,3.50
2019-04-03T15:02:09.147Z,3.52
2019-04-03T15:04:38.445Z,3.85
2019-04-03T15:07:09.541Z,3.58
2019-04-03T15:09:38.941Z,3.92
2019-04-03T15:12:08.229Z,4.45
2019-04-03T15:14:38.093Z,4.80
2019-04-03T15:17:16.582Z,4.70
2019-04-03T15:19:58.211Z,5.60
2019-04-03T15:22:32.389Z,5.70
2019-04-03T15:25:00.885Z,4.87
2019-04-03T15:27:30.396Z,5.33
2019-04-03T15:30:00.038Z,5.15
2019-04-03T15:32:29.272Z,4.90
2019-04-03T15:34:59.749Z,4.62
2019-04-03T15:37:30.772Z,4.47
2019-04-03T15:40:00.068Z,3.45
2019-04-03T15:42:29.483Z,3.50
2019-04-03T15:44:58.854Z,3.95
2019-04-03T15:47:35.299Z,3.90
2019-04-03T15:49:59.869Z,4.05
2019-04-03T15:52:29.709Z,3.80
2019-04-03T15:54:59.027Z,4.20
2019-04-03T15:57:28.690Z,4.53
2019-04-03T15:59:58.180Z,4.83
2019-04-03T16:02:30.595Z,4.35
2019-04-03T16:05:01.483Z,4.37
2019-04-03T16:07:32.873Z,4.58
2019-04-03T16:10:02.077Z,4.33
2019-04-03T16:12:31.589Z,4.50
2019-04-03T16:15:01.004Z,4.30
2019-04-03T16:17:33.043Z,4.50
2019-04-03T16:20:01.869Z,4.90
2019-04-03T16:22:32.186Z,5.05
2019-04-03T16:25:01.524Z,5.05
2019-04-03T16:27:30.886Z,5.00
2019-04-03T16:30:00.675Z,5.20
2019-04-03T16:32:31.556Z,5.40
2019-04-03T16:35:01.306Z,5.83
2019-04-03T16:37:30.935Z,5.37
2019-04-03T16:40:04.133Z,6.17
2019-04-03T16:42:32.172Z,5.53
2019-04-03T16:45:04.849Z,5.67
2019-04-03T16:47:32.809Z,5.67
2019-04-03T16:50:02.183Z,5.87
2019-04-03T16:52:31.514Z,5.45
2019-04-03T16:55:00.989Z,5.53
2019-04-03T16:57:31.643Z,4.50
2019-04-03T17:00:01.001Z,4.03
2019-04-03T17:02:35.267Z,3.17
2019-04-03T17:05:06.767Z,2.75
2019-04-03T17:07:37.728Z,2.75
2019-04-03T17:10:09.421Z,2.80
2019-04-03T17:12:38.783Z,2.65
2019-04-03T17:15:09.738Z,2.92
2019-04-03T17:17:39.333Z,2.67
2019-04-03T17:20:09.387Z,3.08
2019-04-03T17:22:40.224Z,2.80
2019-04-03T17:25:10.623Z,3.37
2019-04-03T17:27:40.277Z,3.87
2019-04-03T17:30:10.324Z,3.65
2019-04-03T17:32:41.379Z,4.00
2019-04-03T17:35:13.398Z,4.37
2019-04-03T17:37:42.800Z,3.95
2019-04-03T17:40:12.464Z,3.62
2019-04-03T17:42:41.758Z,3.83
2019-04-03T17:45:11.238Z,4.03
2019-04-03T17:47:40.591Z,4.25
2019-04-03T17:50:11.217Z,4.08
2019-04-03T17:52:41.612Z,4.15
2019-04-03T17:55:13.099Z,4.62
2019-04-03T17:57:45.337Z,4.33
2019-04-03T18:00:20.476Z,4.10
2019-04-03T18:02:48.625Z,4.42
2019-04-03T18:05:18.227Z,4.45
2019-04-03T18:07:47.597Z,4.78
2019-04-03T18:10:17.124Z,4.53
2019-04-03T18:12:46.488Z,4.40
2019-04-03T18:15:16.689Z,4.50
2019-04-03T18:17:46.135Z,4.80
2019-04-03T18:20:15.870Z,4.30
2019-04-03T18:22:45.197Z,4.40
2019-04-03T18:25:14.866Z,4.15
2019-04-03T18:27:44.293Z,4.05
2019-04-03T18:30:13.998Z,4.30
2019-04-03T18:32:45.524Z,4.30
2019-04-03T18:35:14.593Z,4.47
2019-04-03T18:37:44.013Z,4.67
2019-04-03T18:40:15.094Z,5.20
2019-04-03T18:42:44.616Z,5.17
2019-04-03T18:45:24.674Z,18.25
2019-04-03T18:47:46.648Z,9.00
2019-04-03T18:50:16.531Z,5.40
2019-04-03T18:52:46.161Z,4.33
2019-04-03T18:55:15.495Z,3.98
2019-04-03T18:57:49.582Z,4.08
2019-04-03T19:00:17.919Z,4.67
2019-04-03T19:02:48.315Z,5.50
2019-04-03T19:05:17.695Z,7.08
2019-04-03T19:07:47.035Z,7.22
2019-04-03T19:10:18.202Z,7.53
2019-04-03T19:12:47.770Z,6.08
2019-04-03T19:15:17.259Z,7.78
2019-04-03T19:17:59.025Z,10.03
2019-04-03T19:20:17.859Z,10.23
2019-04-03T19:22:47.221Z,9.78
2019-04-03T19:25:16.666Z,9.50
2019-04-03T19:27:49.748Z,7.78
2019-04-03T19:30:19.120Z,10.20
2019-04-03T19:32:49.418Z,9.88
2019-04-03T19:35:18.718Z,8.93
2019-04-03T19:37:48.145Z,7.03
2019-04-03T19:40:17.491Z,7.17
2019-04-03T19:42:48.860Z,6.80
2019-04-03T19:45:20.519Z,8.13
2019-04-03T19:47:49.451Z,7.35
2019-04-03T19:50:19.031Z,8.60
2019-04-03T19:52:48.812Z,9.35
2019-04-03T19:55:19.441Z,10.90
2019-04-03T19:57:49.224Z,10.00
2019-04-03T20:00:19.052Z,7.70
2019-04-03T20:02:48.494Z,6.78
2019-04-03T20:05:19.520Z,7.42
2019-04-03T20:07:49.010Z,8.25
2019-04-03T20:10:18.434Z,7.55
2019-04-03T20:12:48.919Z,6.55
2019-04-03T20:15:18.437Z,8.28
2019-04-03T20:17:47.817Z,9.68
2019-04-03T20:20:17.191Z,8.83
2019-04-03T20:22:46.631Z,8.68
2019-04-03T20:25:15.960Z,8.55
2019-04-03T20:27:47.208Z,9.63
2019-04-03T20:30:17.002Z,9.73
2019-04-03T20:32:46.319Z,7.15
2019-04-03T20:35:17.972Z,12.03
2019-04-03T20:37:46.755Z,11.50
2019-04-03T20:40:16.430Z,9.78
2019-04-03T20:42:45.786Z,9.60
2019-04-03T20:45:15.158Z,9.35
2019-04-03T20:47:44.484Z,9.70
2019-04-03T20:50:16.225Z,10.00
2019-04-03T20:52:46.927Z,10.60
2019-04-03T20:55:18.039Z,11.10
2019-04-03T20:57:55.452Z,9.55
2019-04-03T21:00:19.324Z,9.87
2019-04-03T21:02:48.628Z,9.65
2019-04-03T21:05:18.779Z,9.63
2019-04-03T21:07:48.444Z,10.38
2019-04-03T21:10:18.018Z,10.10
2019-04-03T21:12:47.336Z,10.05
2019-04-03T21:15:16.632Z,10.63
2019-04-03T21:17:45.928Z,10.35
2019-04-03T21:20:15.276Z,12.63
2019-04-03T21:22:45.074Z,12.50
2019-04-03T21:25:15.316Z,13.65
2019-04-03T21:27:44.620Z,13.15
2019-04-03T21:30:14.357Z,12.65
2019-04-03T21:32:45.237Z,11.90
2019-04-03T21:35:14.660Z,11.83
2019-04-03T21:37:45.329Z,16.40
2019-04-03T21:40:15.281Z,14.90
2019-04-03T21:42:46.732Z,17.70
2019-04-03T21:45:16.008Z,15.05
2019-04-03T21:47:45.302Z,12.85
2019-04-03T21:50:14.857Z,16.35
2019-04-03T21:52:44.225Z,15.60
2019-04-03T21:55:13.734Z,14.23
2019-04-03T21:57:43.270Z,14.83
2019-04-03T22:00:14.774Z,14.03
2019-04-03T22:02:49.378Z,13.22
2019-04-03T22:05:17.597Z,13.72
2019-04-03T22:07:46.910Z,14.33
2019-04-03T22:10:16.281Z,15.43
2019-04-03T22:12:45.653Z,15.20
2019-04-03T22:15:16.941Z,15.43
2019-04-03T22:17:47.910Z,15.58
2019-04-03T22:20:17.204Z,15.78
2019-04-03T22:22:46.696Z,15.40
2019-04-03T22:25:16.169Z,15.48
2019-04-03T22:27:45.470Z,14.98
2019-04-03T22:30:14.841Z,15.78
2019-04-03T22:32:44.153Z,15.48
2019-04-03T22:35:13.473Z,15.25
2019-04-03T22:37:42.859Z,15.83
2019-04-03T22:40:12.530Z,15.95
2019-04-03T22:42:41.809Z,16.25
2019-04-03T22:45:11.353Z,16.02
2019-04-03T22:47:40.710Z,17.07
2019-04-03T22:50:10.093Z,15.75
2019-04-03T22:52:39.916Z,16.37
2019-04-03T22:55:09.923Z,17.37
2019-04-03T22:57:39.222Z,17.60
2019-04-03T23:00:08.788Z,16.87
2019-04-03T23:02:39.698Z,17.12
2019-04-03T23:05:09.066Z,18.80
2019-04-03T23:07:38.500Z,17.82
2019-04-03T23:10:08.112Z,16.50
2019-04-03T23:12:37.413Z,16.65
2019-04-03T23:15:09.387Z,15.78
2019-04-03T23:17:41.071Z,15.35
2019-04-03T23:20:10.602Z,15.10
2019-04-03T23:22:39.909Z,14.45
2019-04-03T23:25:09.269Z,14.85
2019-04-03T23:27:38.567Z,15.50
2019-04-03T23:30:10.090Z,16.45
2019-04-03T23:32:38.933Z,17.23
2019-04-03T23:35:08.461Z,18.30
2019-04-03T23:37:37.759Z,18.50
2019-04-03T23:40:07.202Z,19.42
2019-04-03T23:42:37.842Z,18.55
2019-04-03T23:45:07.965Z,18.48
2019-04-03T23:47:37.342Z,18.62
2019-04-03T23:50:07.842Z,18.05
2019-04-03T23:52:37.142Z,16.93
2019-04-03T23:55:06.604Z,17.73
2019-04-03T23:57:39.696Z,17.20
